createdAt,value
2018-10-19T00:02:00.187Z,75.50
2018-10-19T00:04:27.807Z,74.97
2018-10-19T00:06:55.479Z,74.16
2018-10-19T00:09:23.224Z,74.20
2018-10-19T00:11:50.931Z,74.66
2018-10-19T00:14:18.655Z,74.60
2018-10-19T00:16:46.336Z,74.84
2018-10-19T00:19:14.531Z,73.64
2018-10-19T00:21:42.287Z,74.76
2018-10-19T00:24:09.941Z,74.88
2018-10-19T00:26:37.588Z,75.12
2018-10-19T00:29:05.510Z,75.01
2018-10-19T00:31:33.260Z,74.43
2018-10-19T00:34:00.951Z,75.80
2018-10-19T00:36:28.669Z,75.88
2018-10-19T00:38:56.415Z,75.31
2018-10-19T00:41:24.024Z,75.35
2018-10-19T00:43:51.812Z,74.59
2018-10-19T00:46:19.518Z,75.16
2018-10-19T00:48:47.189Z,74.99
2018-10-19T00:51:14.866Z,75.67
2018-10-19T00:53:42.482Z,76.11
2018-10-19T00:56:10.265Z,75.56
2018-10-19T00:58:37.972Z,76.08
2018-10-19T01:01:05.633Z,76.23
2018-10-19T01:03:33.278Z,76.94
2018-10-19T01:06:00.876Z,77.10
2018-10-19T01:08:28.515Z,77.22
2018-10-19T01:10:56.174Z,77.43
2018-10-19T01:13:23.795Z,77.21
2018-10-19T01:15:51.609Z,76.96
2018-10-19T01:18:19.298Z,77.64
2018-10-19T01:20:46.957Z,76.85
2018-10-19T01:23:15.034Z,76.90
2018-10-19T01:25:42.649Z,76.67
2018-10-19T01:28:11.105Z,77.05
2018-10-19T01:30:38.844Z,77.19
2018-10-19T01:33:06.550Z,77.40
2018-10-19T01:35:34.163Z,77.07
2018-10-19T01:38:01.734Z,76.89
2018-10-19T01:40:29.375Z,77.08
2018-10-19T01:42:57.005Z,77.27
2018-10-19T01:45:24.807Z,77.42
2018-10-19T01:47:52.439Z,77.06
2018-10-19T01:50:20.108Z,77.19
2018-10-19T01:52:47.827Z,77.91
2018-10-19T01:55:15.458Z,77.54
2018-10-19T01:57:43.056Z,77.68
2018-10-19T02:00:10.782Z,77.32
2018-10-19T02:02:38.479Z,77.26
2018-10-19T02:05:06.190Z,78.61
2018-10-19T02:07:33.785Z,78.02
2018-10-19T02:10:01.488Z,78.59
2018-10-19T02:12:29.145Z,79.00
2018-10-19T02:14:57.018Z,79.09
2018-10-19T02:17:24.627Z,79.78
2018-10-19T02:19:52.288Z,80.15
2018-10-19T02:22:19.979Z,79.95
2018-10-19T02:24:47.622Z,79.79
2018-10-19T02:27:15.321Z,80.17
2018-10-19T02:29:42.929Z,80.41
2018-10-19T02:32:10.631Z,81.06
2018-10-19T02:34:38.293Z,80.98
2018-10-19T02:37:06.402Z,81.18
2018-10-19T02:39:34.101Z,80.89
2018-10-19T02:42:01.861Z,81.62
2018-10-19T02:44:29.664Z,82.06
2018-10-19T02:46:57.448Z,81.80
2018-10-19T02:49:25.149Z,81.37
2018-10-19T02:51:52.899Z,82.14
2018-10-19T02:54:20.582Z,81.34
2018-10-19T02:56:48.239Z,81.37
2018-10-19T02:59:15.894Z,81.69
2018-10-19T03:01:43.521Z,82.17
2018-10-19T03:04:11.199Z,81.78
2018-10-19T03:06:38.848Z,81.79
2018-10-19T03:09:09.425Z,80.78
2018-10-19T03:11:37.103Z,80.62
2018-10-19T03:14:04.881Z,79.94
2018-10-19T03:16:47.005Z,79.93
2018-10-19T03:19:14.715Z,79.02
2018-10-19T03:21:42.745Z,79.06
2018-10-19T03:24:10.413Z,78.79
2018-10-19T03:26:38.121Z,78.98
2018-10-19T03:29:05.829Z,78.67
2018-10-19T03:31:33.825Z,79.27
2018-10-19T03:34:01.514Z,78.75
2018-10-19T03:36:29.137Z,78.82
2018-10-19T03:38:56.920Z,79.28
2018-10-19T03:41:25.630Z,79.61
2018-10-19T03:43:53.308Z,79.45
2018-10-19T03:46:20.956Z,79.41
2018-10-19T03:48:48.567Z,79.12
2018-10-19T03:51:16.274Z,78.93
2018-10-19T03:53:43.954Z,78.05
2018-10-19T03:56:11.593Z,78.99
2018-10-19T03:58:39.280Z,79.71
2018-10-19T04:01:07.048Z,80.62
2018-10-19T04:03:34.866Z,81.01
2018-10-19T04:06:02.570Z,81.13
2018-10-19T04:08:30.376Z,82.27
2018-10-19T04:10:58.101Z,81.22
2018-10-19T04:13:25.799Z,82.56
2018-10-19T04:15:53.432Z,82.94
2018-10-19T04:18:21.193Z,82.78
2018-10-19T04:20:49.138Z,83.35
2018-10-19T04:23:16.855Z,83.61
2018-10-19T04:25:44.552Z,84.71
2018-10-19T04:28:12.288Z,84.56
2018-10-19T04:30:39.962Z,84.09
2018-10-19T04:33:07.771Z,83.82
2018-10-19T04:35:35.407Z,83.31
2018-10-19T04:38:03.329Z,82.99
2018-10-19T04:40:31.124Z,82.86
2018-10-19T04:42:58.815Z,82.77
2018-10-19T04:45:26.689Z,83.02
2018-10-19T04:47:54.290Z,83.20
2018-10-19T04:50:21.972Z,83.62
2018-10-19T04:52:49.959Z,83.50
2018-10-19T04:55:19.875Z,82.75
2018-10-19T04:57:47.775Z,81.86
2018-10-19T05:00:17.268Z,80.55
2018-10-19T05:02:45.092Z,80.27
2018-10-19T05:05:12.991Z,79.63
2018-10-19T05:07:40.673Z,79.63
2018-10-19T05:10:09.075Z,79.95
2018-10-19T05:12:36.949Z,79.91
2018-10-19T05:15:06.220Z,79.20
2018-10-19T05:17:34.010Z,79.67
2018-10-19T05:20:01.725Z,79.34
2018-10-19T05:22:29.396Z,79.46
2018-10-19T05:24:57.008Z,79.41
2018-10-19T05:27:24.705Z,80.09
2018-10-19T05:29:52.362Z,80.35
2018-10-19T05:32:20.064Z,80.02
2018-10-19T05:34:47.693Z,79.12
2018-10-19T05:37:15.355Z,78.19
2018-10-19T05:39:43.079Z,78.28
2018-10-19T05:42:10.722Z,78.18
2018-10-19T05:44:38.445Z,78.24
2018-10-19T05:47:06.388Z,77.89
2018-10-19T05:49:33.986Z,77.42
2018-10-19T05:52:01.702Z,77.16
2018-10-19T05:54:29.299Z,76.86
2018-10-19T05:56:56.983Z,76.93
2018-10-19T05:59:24.646Z,76.73
2018-10-19T06:01:52.251Z,77.36
2018-10-19T06:04:19.944Z,76.54
2018-10-19T06:06:47.820Z,76.41
2018-10-19T06:09:15.745Z,75.53
2018-10-19T06:11:43.584Z,75.38
2018-10-19T06:14:11.276Z,75.48
2018-10-19T06:16:39.445Z,74.94
2018-10-19T06:19:08.273Z,75.52
2018-10-19T06:21:35.906Z,75.53
2018-10-19T06:24:04.362Z,75.29
2018-10-19T06:26:32.088Z,75.14
2018-10-19T06:28:59.674Z,75.43
2018-10-19T06:31:27.292Z,75.47
2018-10-19T06:33:54.914Z,76.24
2018-10-19T06:36:22.549Z,76.06
2018-10-19T06:38:50.198Z,76.02
2018-10-19T06:41:17.915Z,76.27
2018-10-19T06:43:45.429Z,76.73
2018-10-19T06:46:13.133Z,76.34
2018-10-19T06:48:40.725Z,76.53
2018-10-19T06:51:08.375Z,78.05
2018-10-19T06:53:36.164Z,79.18
2018-10-19T06:56:03.783Z,79.90
2018-10-19T06:58:31.454Z,80.90
2018-10-19T07:00:59.174Z,80.49
2018-10-19T07:03:26.833Z,81.32
2018-10-19T07:05:54.610Z,82.81
2018-10-19T07:08:22.286Z,82.70
2018-10-19T07:10:49.977Z,83.09
2018-10-19T07:13:17.655Z,83.07
2018-10-19T07:15:45.379Z,82.55
2018-10-19T07:18:12.984Z,80.98
2018-10-19T07:20:40.650Z,80.78
2018-10-19T07:23:08.351Z,80.86
2018-10-19T07:25:36.062Z,81.73
2018-10-19T07:28:04.155Z,82.05
2018-10-19T07:30:39.145Z,81.72
2018-10-19T07:33:06.841Z,81.46
2018-10-19T07:35:41.535Z,82.77
2018-10-19T07:38:09.176Z,82.00
2018-10-19T07:40:37.185Z,81.99
2018-10-19T07:43:05.183Z,82.80
2018-10-19T07:45:32.948Z,83.44
2018-10-19T07:48:00.861Z,84.35
2018-10-19T07:50:28.458Z,84.14
2018-10-19T07:52:56.194Z,83.78
2018-10-19T07:55:23.850Z,84.43
2018-10-19T07:57:51.787Z,84.07
2018-10-19T08:00:19.640Z,82.99
2018-10-19T08:02:47.275Z,81.57
2018-10-19T08:05:15.063Z,81.67
2018-10-19T08:07:42.680Z,81.03
2018-10-19T08:10:10.831Z,80.55
2018-10-19T08:12:38.606Z,80.72
2018-10-19T08:15:07.320Z,81.12
2018-10-19T08:17:35.066Z,81.87
2018-10-19T08:20:02.927Z,83.20
2018-10-19T08:22:30.676Z,82.28
2018-10-19T08:24:58.344Z,82.95
2018-10-19T08:27:26.118Z,82.59
2018-10-19T08:29:53.753Z,82.89
2018-10-19T08:32:21.559Z,83.02
2018-10-19T08:34:49.319Z,82.56
2018-10-19T08:37:16.941Z,81.23
2018-10-19T08:39:44.997Z,81.63
2018-10-19T08:42:12.879Z,81.55
2018-10-19T08:44:40.583Z,80.89
2018-10-19T08:47:08.455Z,80.97
2018-10-19T08:49:37.053Z,81.77
2018-10-19T08:52:04.743Z,81.29
2018-10-19T08:54:32.568Z,81.09
2018-10-19T08:57:00.292Z,81.71
2018-10-19T08:59:28.235Z,81.62
2018-10-19T09:01:55.969Z,79.62
2018-10-19T09:04:23.803Z,80.83
2018-10-19T09:06:51.526Z,80.29
2018-10-19T09:09:19.179Z,80.83
2018-10-19T09:11:47.045Z,79.77
2018-10-19T09:14:32.213Z,80.10
2018-10-19T09:16:59.995Z,81.09
2018-10-19T09:19:27.628Z,79.21
2018-10-19T09:21:55.208Z,77.68
2018-10-19T09:24:23.181Z,78.42
2018-10-19T09:26:50.804Z,78.53
2018-10-19T09:29:18.449Z,77.75
2018-10-19T09:31:46.149Z,77.60
2018-10-19T09:34:13.722Z,75.88
2018-10-19T09:36:41.535Z,77.16
2018-10-19T09:39:11.615Z,76.41
2018-10-19T09:41:39.505Z,76.83
2018-10-19T09:44:07.242Z,77.05
2018-10-19T09:46:38.246Z,76.62
2018-10-19T09:49:06.522Z,77.36
2018-10-19T09:51:34.766Z,75.86
2018-10-19T09:54:02.484Z,75.05
2018-10-19T09:56:30.221Z,73.70
2018-10-19T09:58:57.991Z,73.75
2018-10-19T10:01:28.723Z,72.47
2018-10-19T10:03:56.438Z,70.78
2018-10-19T10:06:24.214Z,71.60
2018-10-19T10:08:52.089Z,71.97
2018-10-19T10:11:20.037Z,72.03
2018-10-19T10:13:47.972Z,71.51
2018-10-19T10:16:15.663Z,71.49
2018-10-19T10:18:43.404Z,71.37
2018-10-19T10:21:11.400Z,71.83
2018-10-19T10:23:39.494Z,71.34
2018-10-19T10:26:07.310Z,70.55
2018-10-19T10:28:34.990Z,71.45
2018-10-19T10:31:02.820Z,71.55
2018-10-19T10:33:30.506Z,70.34
2018-10-19T10:35:58.169Z,71.23
2018-10-19T10:38:25.930Z,70.06
2018-10-19T10:40:53.621Z,69.18
2018-10-19T10:43:21.593Z,69.70
2018-10-19T10:45:49.335Z,69.18
2018-10-19T10:48:17.113Z,68.27
2018-10-19T10:50:44.819Z,67.42
2018-10-19T10:53:12.713Z,67.10
2018-10-19T10:55:40.409Z,67.43
2018-10-19T10:58:08.176Z,67.16
2018-10-19T11:00:35.983Z,66.94
2018-10-19T11:03:04.121Z,67.58
2018-10-19T11:05:32.195Z,66.22
2018-10-19T11:07:59.873Z,65.61
2018-10-19T11:10:27.499Z,65.89
2018-10-19T11:12:55.155Z,66.23
2018-10-19T11:15:22.821Z,65.94
2018-10-19T11:17:50.672Z,65.20
2018-10-19T11:20:18.398Z,64.85
2018-10-19T11:22:46.041Z,65.33
2018-10-19T11:25:13.778Z,65.43
2018-10-19T11:27:41.392Z,64.72
2018-10-19T11:30:09.136Z,64.98
2018-10-19T11:32:36.878Z,66.18
2018-10-19T11:35:05.369Z,66.32
2018-10-19T11:37:33.257Z,66.03
2018-10-19T11:40:38.583Z,65.53
2018-10-19T11:43:06.679Z,66.66
2018-10-19T11:45:35.228Z,65.89
2018-10-19T11:48:02.904Z,66.45
2018-10-19T11:50:30.768Z,66.71
2018-10-19T11:52:58.446Z,66.00
2018-10-19T11:55:26.244Z,65.93
2018-10-19T11:57:54.003Z,66.26
2018-10-19T12:00:21.651Z,66.16
2018-10-19T12:02:49.281Z,65.31
2018-10-19T12:05:17.119Z,66.04
2018-10-19T12:07:44.811Z,65.03
2018-10-19T12:10:13.257Z,64.88
2018-10-19T12:12:41.496Z,65.30
2018-10-19T12:15:10.588Z,64.18
2018-10-19T12:17:38.833Z,63.85
2018-10-19T12:20:09.330Z,64.10
2018-10-19T12:22:37.014Z,64.23
2018-10-19T12:25:06.631Z,63.49
2018-10-19T12:27:34.290Z,63.90
2018-10-19T12:30:01.960Z,63.79
2018-10-19T12:32:29.658Z,63.63
2018-10-19T12:34:57.303Z,63.67
2018-10-19T12:37:25.066Z,64.28
2018-10-19T12:39:52.704Z,63.68
2018-10-19T12:42:20.351Z,63.53
2018-10-19T12:44:48.029Z,63.62
2018-10-19T12:47:31.194Z,63.48
2018-10-19T12:49:58.957Z,63.73
2018-10-19T12:52:26.756Z,62.86
2018-10-19T12:54:54.635Z,62.69
2018-10-19T12:57:22.457Z,62.70
2018-10-19T12:59:50.112Z,62.46
2018-10-19T13:02:17.851Z,63.99
2018-10-19T13:04:45.573Z,63.25
2018-10-19T13:07:13.249Z,63.78
2018-10-19T13:09:41.001Z,62.90
2018-10-19T13:12:08.667Z,62.83
2018-10-19T13:14:36.313Z,62.56
2018-10-19T13:17:04.431Z,62.75
2018-10-19T13:19:32.126Z,61.55
2018-10-19T13:21:59.755Z,61.23
2018-10-19T13:24:27.551Z,60.94
2018-10-19T13:26:55.307Z,60.62
2018-10-19T13:29:23.283Z,59.77
2018-10-19T13:31:50.973Z,59.70
2018-10-19T13:34:18.615Z,60.32
2018-10-19T13:36:46.204Z,60.59
2018-10-19T13:39:14.166Z,60.25
2018-10-19T13:41:42.458Z,60.30
2018-10-19T13:44:10.607Z,61.53
2018-10-19T13:46:38.294Z,61.44
2018-10-19T13:49:06.126Z,62.18
2018-10-19T13:51:34.193Z,62.03
2018-10-19T13:54:02.159Z,62.54
2018-10-19T13:56:30.135Z,61.98
2018-10-19T13:58:57.899Z,62.31
2018-10-19T14:01:25.691Z,62.73
2018-10-19T14:03:53.340Z,62.61
2018-10-19T14:06:21.090Z,62.45
2018-10-19T14:08:48.814Z,62.58
2018-10-19T14:11:16.618Z,61.99
2018-10-19T14:13:44.257Z,62.24
2018-10-19T14:16:11.969Z,61.88
2018-10-19T14:18:39.632Z,63.24
2018-10-19T14:21:07.408Z,65.00
2018-10-19T14:23:35.170Z,65.50
2018-10-19T14:26:02.790Z,65.69
2018-10-19T14:28:30.522Z,66.23
2018-10-19T14:30:58.173Z,64.89
2018-10-19T14:33:26.053Z,65.02
2018-10-19T14:35:53.846Z,65.09
2018-10-19T14:38:21.472Z,65.75
2018-10-19T14:40:49.148Z,65.49
2018-10-19T14:43:18.142Z,66.50
2018-10-19T14:45:46.244Z,66.88
2018-10-19T14:48:13.994Z,67.06
2018-10-19T14:50:41.741Z,66.24
2018-10-19T14:53:09.504Z,65.80
2018-10-19T14:55:37.252Z,67.11
2018-10-19T14:58:05.103Z,67.93
2018-10-19T15:00:32.826Z,67.50
2018-10-19T15:05:27.073Z,67.92
2018-10-19T15:07:54.751Z,69.08
2018-10-19T15:10:22.619Z,67.71
2018-10-19T15:12:50.082Z,67.31
2018-10-19T15:15:19.005Z,67.51
2018-10-19T15:17:46.968Z,67.75
2018-10-19T15:20:15.101Z,68.04
2018-10-19T15:22:43.248Z,68.80
2018-10-19T15:25:11.291Z,67.68
2018-10-19T15:27:40.005Z,68.33
2018-10-19T15:30:09.328Z,68.43
2018-10-19T15:32:37.051Z,67.76
2018-10-19T15:35:06.663Z,67.67
2018-10-19T15:37:35.416Z,67.81
2018-10-19T15:40:03.241Z,68.20
2018-10-19T15:42:30.867Z,67.60
2018-10-19T15:44:58.530Z,67.27
2018-10-19T15:47:28.103Z,67.29
2018-10-19T15:49:57.085Z,67.17
2018-10-19T15:52:24.867Z,67.58
2018-10-19T15:54:52.980Z,67.69
2018-10-19T15:57:20.778Z,68.27
2018-10-19T15:59:48.406Z,68.15
2018-10-19T16:02:16.655Z,68.50
2018-10-19T16:04:44.839Z,67.79
2018-10-19T16:07:12.791Z,67.98
2018-10-19T16:09:40.552Z,68.37
2018-10-19T16:12:08.467Z,68.73
2018-10-19T16:14:36.175Z,68.17
2018-10-19T16:17:03.965Z,69.72
2018-10-19T16:19:32.580Z,69.34
2018-10-19T16:22:00.275Z,68.80
2018-10-19T16:24:28.004Z,68.53
2018-10-19T16:26:55.760Z,68.62
2018-10-19T16:29:23.439Z,68.65
2018-10-19T16:31:51.129Z,68.84
2018-10-19T16:34:18.898Z,68.50
2018-10-19T16:36:46.837Z,68.09
2018-10-19T16:39:14.646Z,68.80
2018-10-19T16:41:42.379Z,67.96
2018-10-19T16:44:10.143Z,68.54
2018-10-19T16:46:37.951Z,67.87
2018-10-19T16:49:05.698Z,67.45
2018-10-19T16:51:33.550Z,67.51
2018-10-19T16:54:01.327Z,67.45
2018-10-19T16:56:29.078Z,67.55
2018-10-19T16:58:56.816Z,67.27
2018-10-19T17:01:24.900Z,67.00
2018-10-19T17:03:52.700Z,67.71
2018-10-19T17:06:20.466Z,67.73
2018-10-19T17:08:48.419Z,67.86
2018-10-19T17:11:16.391Z,67.98
2018-10-19T17:13:47.224Z,68.36
2018-10-19T17:16:15.182Z,68.27
2018-10-19T17:18:42.893Z,67.92
2018-10-19T17:21:10.802Z,67.00
2018-10-19T17:23:38.572Z,66.88
2018-10-19T17:26:07.003Z,67.09
2018-10-19T17:28:34.825Z,67.30
2018-10-19T17:31:02.730Z,66.72
2018-10-19T17:33:30.722Z,67.19
2018-10-19T17:35:58.636Z,67.14
2018-10-19T17:38:26.751Z,67.90
2018-10-19T17:40:54.650Z,67.29
2018-10-19T17:43:22.556Z,67.82
2018-10-19T17:45:50.369Z,67.45
2018-10-19T17:48:18.175Z,68.68
2018-10-19T17:50:45.944Z,68.07
2018-10-19T17:53:13.853Z,68.45
2018-10-19T17:55:41.483Z,69.08
2018-10-19T17:58:09.213Z,68.98
2018-10-19T18:00:36.986Z,69.58
2018-10-19T18:03:04.871Z,70.52
2018-10-19T18:05:32.577Z,69.97
2018-10-19T18:08:00.319Z,69.36
2018-10-19T18:10:28.238Z,69.68
2018-10-19T18:12:55.997Z,69.81
2018-10-19T18:15:23.836Z,69.80
2018-10-19T18:17:51.663Z,69.74
2018-10-19T18:20:19.441Z,69.96
2018-10-19T18:22:47.164Z,70.67
2018-10-19T18:25:14.970Z,70.77
2018-10-19T18:27:42.652Z,70.23
2018-10-19T18:30:10.504Z,71.02
2018-10-19T18:32:38.480Z,71.00
2018-10-19T18:35:08.138Z,70.17
2018-10-19T18:37:35.906Z,71.34
2018-10-19T18:40:05.046Z,69.89
2018-10-19T18:42:32.793Z,70.79
2018-10-19T18:45:00.724Z,71.51
2018-10-19T18:47:28.629Z,70.75
2018-10-19T18:49:56.546Z,70.32
2018-10-19T18:52:24.735Z,70.36
2018-10-19T18:54:52.549Z,70.39
2018-10-19T18:57:20.553Z,69.51
2018-10-19T18:59:48.574Z,70.46
2018-10-19T19:02:16.500Z,70.36
2018-10-19T19:04:44.411Z,70.63
2018-10-19T19:07:12.617Z,70.97
2018-10-19T19:09:43.854Z,70.77
2018-10-19T19:12:11.580Z,70.76
2018-10-19T19:14:39.611Z,70.75
2018-10-19T19:17:07.421Z,70.12
2018-10-19T19:19:35.402Z,69.98
2018-10-19T19:22:03.313Z,69.93
2018-10-19T19:24:37.364Z,70.66
2018-10-19T19:27:05.587Z,71.52
2018-10-19T19:29:33.397Z,71.49
2018-10-19T19:32:01.357Z,71.71
2018-10-19T19:34:31.211Z,71.46
2018-10-19T19:36:59.200Z,71.45
2018-10-19T19:39:27.084Z,72.06
2018-10-19T19:42:00.647Z,71.47
2018-10-19T19:44:28.396Z,70.50
2018-10-19T19:46:56.161Z,70.45
2018-10-19T19:49:29.812Z,71.18
2018-10-19T19:51:57.904Z,71.00
2018-10-19T19:54:25.798Z,70.88
2018-10-19T19:56:53.593Z,70.63
2018-10-19T19:59:21.286Z,70.95
2018-10-19T20:01:49.223Z,70.99
2018-10-19T20:04:17.045Z,70.61
2018-10-19T20:06:44.805Z,71.17
2018-10-19T20:09:13.278Z,71.67
2018-10-19T20:11:41.052Z,71.84
2018-10-19T20:14:09.282Z,71.97
2018-10-19T20:16:37.544Z,72.54
2018-10-19T20:19:05.683Z,72.21
2018-10-19T20:21:33.468Z,71.92
2018-10-19T20:24:01.347Z,71.35
2018-10-19T20:26:29.028Z,71.34
2018-10-19T20:28:56.906Z,71.70
2018-10-19T20:31:24.577Z,71.08
2018-10-19T20:33:52.385Z,71.95
2018-10-19T20:36:20.241Z,72.05
2018-10-19T20:38:48.146Z,71.36
2018-10-19T20:41:15.933Z,72.51
2018-10-19T20:43:43.975Z,73.09
2018-10-19T20:46:11.834Z,73.20
2018-10-19T20:48:39.557Z,72.38
2018-10-19T20:51:07.432Z,72.27
2018-10-19T20:53:35.258Z,72.53
2018-10-19T20:56:06.982Z,72.33
2018-10-19T20:58:34.796Z,73.21
2018-10-19T21:01:02.561Z,73.08
2018-10-19T21:03:30.379Z,72.70
2018-10-19T21:05:58.121Z,72.85
2018-10-19T21:08:25.951Z,73.17
2018-10-19T21:10:53.624Z,73.00
2018-10-19T21:13:21.597Z,73.02
2018-10-19T21:15:49.413Z,72.60
2018-10-19T21:18:17.286Z,72.71
2018-10-19T21:20:45.066Z,73.57
2018-10-19T21:23:12.982Z,72.96
2018-10-19T21:25:40.693Z,72.71
2018-10-19T21:28:10.584Z,73.32
2018-10-19T21:30:38.421Z,72.91
2018-10-19T21:33:06.243Z,73.63
2018-10-19T21:35:33.987Z,73.57
2018-10-19T21:38:02.690Z,73.99
2018-10-19T21:40:30.354Z,73.78
2018-10-19T21:42:58.026Z,74.11
2018-10-19T21:45:25.705Z,74.18
2018-10-19T21:47:53.509Z,74.50
2018-10-19T21:50:21.950Z,74.62
2018-10-19T21:52:51.120Z,74.03
2018-10-19T21:55:18.868Z,74.46
2018-10-19T21:57:46.528Z,74.13
2018-10-19T22:00:14.393Z,74.23
2018-10-19T22:02:42.122Z,74.50
2018-10-19T22:05:10.000Z,74.55
2018-10-19T22:07:38.221Z,74.47
2018-10-19T22:10:06.195Z,74.61
2018-10-19T22:12:34.210Z,74.55
2018-10-19T22:15:02.034Z,74.03
2018-10-19T22:17:29.884Z,74.57
2018-10-19T22:19:57.661Z,74.46
2018-10-19T22:22:25.466Z,75.10
2018-10-19T22:24:53.402Z,75.24
2018-10-19T22:27:21.107Z,74.13
2018-10-19T22:29:48.868Z,74.07
2018-10-19T22:32:16.563Z,74.14
2018-10-19T22:34:44.501Z,74.72
2018-10-19T22:37:12.243Z,75.54
2018-10-19T22:39:40.848Z,74.35
2018-10-19T22:42:08.590Z,74.53
2018-10-19T22:44:36.447Z,75.17
2018-10-19T22:47:04.382Z,74.62
2018-10-19T22:49:32.044Z,74.55
2018-10-19T22:51:59.711Z,75.08
2018-10-19T22:54:27.547Z,74.38
2018-10-19T22:56:55.292Z,74.58
2018-10-19T22:59:23.003Z,73.52
2018-10-19T23:01:50.907Z,73.93
2018-10-19T23:04:18.735Z,74.15
2018-10-19T23:06:46.755Z,74.53
2018-10-19T23:09:14.790Z,75.01
2018-10-19T23:11:42.575Z,74.97
2018-10-19T23:14:10.438Z,74.93
2018-10-19T23:16:38.535Z,75.08
2018-10-19T23:19:06.719Z,75.04
2018-10-19T23:21:34.583Z,73.58
2018-10-19T23:24:02.601Z,74.52
2018-10-19T23:26:30.284Z,74.14
2018-10-19T23:28:58.126Z,74.47
2018-10-19T23:31:25.962Z,74.33
2018-10-19T23:33:53.632Z,73.78
2018-10-19T23:36:22.098Z,74.33
2018-10-19T23:38:49.787Z,74.80
2018-10-19T23:41:17.474Z,75.13
2018-10-19T23:43:45.880Z,75.16
2018-10-19T23:46:13.764Z,74.56
2018-10-19T23:48:41.419Z,75.14
2018-10-19T23:51:09.142Z,75.37
2018-10-19T23:53:37.044Z,75.45
2018-10-19T23:56:04.948Z,75.60
2018-10-19T23:58:32.718Z,75.87
